Time;durP1;ratioP1;P1;durP2;ratioP2;P2;SDS_P1;SDS_P2;PMS_P1;PMS_P2;Temp;Humidity;BMP_temperature;BMP_pressure;BME280_temperature;BME280_humidity;BME280_pressure;Samples;Min_cycle;Max_cycle;Signal;HPM_P1;HPM_P2
2023/04/13 00:01:59;;;;;;;4.65;1.08;;;;;;;6.74;100.00;99495.16;5225662;28;20494;-78
2023/04/13 00:04:30;;;;;;;4.50;0.90;;;;;;;6.65;100.00;99496.19;5225639;28;20100;-77
2023/04/13 00:07:01;;;;;;;6.40;1.20;;;;;;;6.62;100.00;99500.00;5225100;28;20082;-77
2023/04/13 00:09:32;;;;;;;7.00;0.93;;;;;;;6.53;100.00;99502.91;5225527;28;20657;-77
2023/04/13 00:12:03;;;;;;;5.97;1.17;;;;;;;6.54;100.00;99492.06;5224690;28;20025;-76
2023/04/13 00:14:33;;;;;;;4.07;1.10;;;;;;;6.58;100.00;99495.22;5225529;28;20404;-76
2023/04/13 00:17:04;;;;;;;6.63;1.15;;;;;;;6.60;100.00;99501.22;5224868;28;20060;-76
2023/04/13 00:19:35;;;;;;;3.78;0.82;;;;;;;6.63;100.00;99482.22;5225280;28;20064;-77
2023/04/13 00:22:08;;;;;;;9.98;1.25;;;;;;;6.63;100.00;99499.03;5224824;28;20024;-77
2023/04/13 00:24:38;;;;;;;4.80;1.00;;;;;;;6.67;100.00;99491.50;5207006;28;20033;-77
2023/04/13 00:27:09;;;;;;;6.75;1.63;;;;;;;6.72;100.00;99497.16;5224435;28;20082;-77
2023/04/13 00:29:40;;;;;;;11.20;1.17;;;;;;;6.72;100.00;99492.63;5225253;28;20071;-76
2023/04/13 00:32:11;;;;;;;10.52;1.20;;;;;;;6.77;100.00;99499.28;5224969;28;20469;-76
2023/04/13 00:34:41;;;;;;;10.23;2.17;;;;;;;6.82;100.00;99516.41;5207564;28;20071;-77
2023/04/13 00:37:13;;;;;;;8.70;1.05;;;;;;;6.84;100.00;99511.75;5224087;28;20029;-77
2023/04/13 00:39:45;;;;;;;9.05;1.90;;;;;;;6.81;100.00;99501.44;5206917;28;20033;-76
2023/04/13 00:42:17;;;;;;;7.63;1.48;;;;;;;6.76;100.00;99519.78;5224734;28;20028;-77
2023/04/13 00:44:48;;;;;;;9.73;1.83;;;;;;;6.79;100.00;99502.63;5223932;28;20025;-74
2023/04/13 00:47:25;;;;;;;9.93;2.20;;;;;;;6.75;100.00;99516.28;5223945;28;20145;-75
2023/04/13 00:49:59;;;;;;;11.43;2.20;;;;;;;6.74;100.00;99522.63;5224694;28;20078;-74
2023/04/13 00:52:29;;;;;;;15.60;2.33;;;;;;;6.71;100.00;99516.81;5224610;28;20025;-75
2023/04/13 00:55:01;;;;;;;9.30;1.60;;;;;;;6.61;100.00;99513.53;5189717;28;20033;-75
2023/04/13 00:57:33;;;;;;;6.80;1.50;;;;;;;6.58;100.00;99520.03;5169656;28;20083;-75
2023/04/13 01:00:06;;;;;;;10.30;1.60;;;;;;;6.58;100.00;99506.72;5222711;28;20021;-73
2023/04/13 01:02:40;;;;;;;9.30;1.40;;;;;;;6.63;100.00;99517.69;5207038;28;20055;-75
2023/04/13 01:05:14;;;;;;;9.63;1.60;;;;;;;6.66;100.00;99505.84;5212028;28;20024;-74
2023/04/13 01:08:03;;;;;;;5.63;1.27;;;;;;;6.61;100.00;99521.53;5223935;28;20025;-75
2023/04/13 01:10:47;;;;;;;9.13;1.20;;;;;;;6.54;100.00;99508.06;5223713;28;20029;-77
2023/04/13 01:13:51;;;;;;;6.57;1.40;;;;;;;6.61;100.00;99505.53;5211106;28;20043;-77
2023/04/13 01:16:28;;;;;;;6.82;2.55;;;;;;;6.56;100.00;99497.22;5223847;28;20025;-76
2023/04/13 01:19:00;;;;;;;10.70;1.65;;;;;;;6.59;100.00;99499.56;5223636;28;20024;-77
2023/04/13 01:21:33;;;;;;;8.15;1.42;;;;;;;6.63;100.00;99508.88;5223989;28;20508;-77
2023/04/13 01:24:04;;;;;;;8.80;1.38;;;;;;;6.69;100.00;99495.66;5223995;28;20078;-76
2023/04/13 01:26:48;;;;;;;3.40;1.30;;;;;;;6.68;100.00;99517.19;5223918;28;20545;-77
2023/04/13 01:29:19;;;;;;;7.93;1.42;;;;;;;6.68;100.00;99526.00;5223434;28;20493;-77
2023/04/13 01:31:51;;;;;;;9.65;1.80;;;;;;;6.65;100.00;99529.00;5224050;28;20028;-77
2023/04/13 01:34:22;;;;;;;10.88;1.58;;;;;;;6.60;100.00;99533.19;5206204;28;20055;-77
2023/04/13 01:36:53;;;;;;;13.00;1.75;;;;;;;6.59;100.00;99526.19;5223900;28;20061;-77
2023/04/13 01:39:24;;;;;;;12.48;3.25;;;;;;;6.63;100.00;99543.50;5223752;28;20044;-77
2023/04/13 01:41:55;;;;;;;10.38;1.73;;;;;;;6.63;100.00;99548.84;5223689;28;20393;-77
2023/04/13 01:44:31;;;;;;;11.32;2.28;;;;;;;6.65;100.00;99557.47;5224032;28;20439;-78
2023/04/13 01:47:24;;;;;;;7.50;1.88;;;;;;;6.68;100.00;99565.97;5223192;28;20371;-77
2023/04/13 01:50:04;;;;;;;11.35;2.40;;;;;;;6.61;100.00;99575.63;5222920;28;20107;-78
2023/04/13 01:52:38;;;;;;;17.92;2.65;;;;;;;6.56;100.00;99577.16;5223840;28;20021;-77
2023/04/13 01:55:11;;;;;;;6.78;1.77;;;;;;;6.54;100.00;99584.50;5223555;28;20025;-77
2023/04/13 01:57:46;;;;;;;12.13;2.17;;;;;;;6.56;100.00;99587.81;5223434;28;20029;-77
2023/04/13 02:00:17;;;;;;;12.77;2.05;;;;;;;6.55;100.00;99602.97;5225737;28;20037;-77
2023/04/13 02:02:48;;;;;;;10.63;1.75;;;;;;;6.46;100.00;99588.84;5227770;28;20032;-77
2023/04/13 02:05:18;;;;;;;11.48;1.83;;;;;;;6.42;100.00;99605.31;5228153;28;20027;-77
2023/04/13 02:07:50;;;;;;;11.00;1.58;;;;;;;6.43;100.00;99604.34;5227324;28;20025;-77
2023/04/13 02:10:21;;;;;;;7.00;1.35;;;;;;;6.39;100.00;99601.19;5227612;28;20032;-75
2023/04/13 02:12:53;;;;;;;5.38;1.02;;;;;;;6.31;100.00;99603.03;5227541;28;20029;-76
2023/04/13 02:15:23;;;;;;;6.00;1.30;;;;;;;6.30;100.00;99610.19;5228448;28;20029;-76
2023/04/13 02:17:54;;;;;;;8.07;1.50;;;;;;;6.27;100.00;99621.16;5193331;28;20015;-76
2023/04/13 02:20:41;;;;;;;8.05;1.75;;;;;;;6.26;100.00;99622.19;5228183;28;20029;-76
2023/04/13 02:23:13;;;;;;;10.98;1.90;;;;;;;6.28;100.00;99628.19;5227810;28;20107;-76
2023/04/13 02:25:45;;;;;;;5.25;1.98;;;;;;;6.31;100.00;99625.16;5227591;28;20033;-76
2023/04/13 02:28:17;;;;;;;13.80;2.15;;;;;;;6.31;100.00;99635.81;5209630;28;20053;-76
2023/04/13 02:30:48;;;;;;;7.28;1.85;;;;;;;6.34;100.00;99638.16;5227270;28;20021;-76
2023/04/13 02:33:20;;;;;;;8.45;1.30;;;;;;;6.34;100.00;99632.00;5227692;28;20036;-77
2023/04/13 02:35:50;;;;;;;7.70;1.60;;;;;;;6.36;100.00;99641.47;5209138;28;20405;-76
2023/04/13 02:38:21;;;;;;;13.70;1.48;;;;;;;6.36;100.00;99656.63;5227273;28;20027;-77
2023/04/13 02:40:54;;;;;;;6.22;1.35;;;;;;;6.34;100.00;99656.81;5226880;28;20033;-77
2023/04/13 02:43:25;;;;;;;4.15;1.05;;;;;;;6.34;100.00;99664.78;5227301;28;20091;-77
2023/04/13 02:45:56;;;;;;;6.03;1.15;;;;;;;6.32;100.00;99669.44;5227402;28;20024;-77
2023/04/13 02:48:27;;;;;;;3.53;0.77;;;;;;;6.30;100.00;99678.63;5208520;28;20883;-77
2023/04/13 02:50:57;;;;;;;1.98;0.80;;;;;;;6.31;100.00;99675.78;5226978;28;20044;-77
2023/04/13 02:53:28;;;;;;;7.55;2.72;;;;;;;6.28;100.00;99681.44;5227203;28;20482;-77
2023/04/13 02:55:58;;;;;;;5.80;0.95;;;;;;;6.19;100.00;99683.28;5227260;28;20466;-77
2023/04/13 02:58:30;;;;;;;3.67;0.70;;;;;;;6.18;100.00;99686.94;5226671;28;20104;-76
2023/04/13 03:01:01;;;;;;;5.15;0.80;;;;;;;6.12;100.00;99692.09;5208937;28;20047;-77
2023/04/13 03:03:32;;;;;;;5.57;0.70;;;;;;;6.08;100.00;99696.09;5227420;28;20037;-77
2023/04/13 03:06:02;;;;;;;4.18;0.95;;;;;;;6.04;100.00;99702.75;5226701;28;20562;-76
2023/04/13 03:08:33;;;;;;;4.40;0.82;;;;;;;6.03;100.00;99703.75;5226592;28;20040;-77
2023/04/13 03:11:05;;;;;;;1.98;1.00;;;;;;;5.94;100.00;99706.38;5226022;28;20021;-77
2023/04/13 03:13:35;;;;;;;1.85;0.63;;;;;;;5.88;100.00;99709.69;5227253;28;20040;-77
2023/04/13 03:16:06;;;;;;;4.05;0.90;;;;;;;5.82;100.00;99717.47;5209211;28;20032;-77
2023/04/13 03:18:37;;;;;;;7.72;0.70;;;;;;;5.80;100.00;99730.13;5217182;28;20034;-77
2023/04/13 03:21:07;;;;;;;8.65;1.50;;;;;;;5.75;100.00;99729.78;5219813;28;20108;-76
2023/04/13 03:23:38;;;;;;;3.17;0.88;;;;;;;5.76;100.00;99734.91;5213259;28;20029;-77
2023/04/13 03:26:08;;;;;;;7.43;0.95;;;;;;;5.74;100.00;99734.25;5219009;28;20096;-76
2023/04/13 03:28:39;;;;;;;6.50;0.93;;;;;;;5.72;100.00;99744.22;5200733;28;20117;-77
2023/04/13 03:31:09;;;;;;;6.15;0.88;;;;;;;5.71;100.00;99751.38;5207847;28;20064;-77
2023/04/13 03:33:40;;;;;;;4.13;0.95;;;;;;;5.70;100.00;99757.69;5207176;28;20026;-77
2023/04/13 03:36:10;;;;;;;3.58;0.70;;;;;;;5.67;100.00;99755.38;5206517;28;20036;-77
2023/04/13 03:38:40;;;;;;;6.93;0.77;;;;;;;5.65;100.00;99772.47;5206652;28;20101;-76
2023/04/13 03:41:11;;;;;;;5.45;0.88;;;;;;;5.62;100.00;99770.13;5206536;28;20021;-76
2023/04/13 03:43:41;;;;;;;1.73;0.60;;;;;;;5.60;100.00;99774.78;5191830;28;20021;-76
2023/04/13 03:46:12;;;;;;;8.27;0.85;;;;;;;5.54;100.00;99772.78;5208337;28;20549;-76
2023/04/13 03:48:43;;;;;;;2.40;0.60;;;;;;;5.52;100.00;99777.41;5207667;28;20032;-77
2023/04/13 03:51:13;;;;;;;10.00;1.20;;;;;;;5.49;100.00;99778.56;5208148;28;20025;-77
2023/04/13 03:53:44;;;;;;;4.35;1.00;;;;;;;5.48;100.00;99784.06;5219821;28;20113;-76
2023/04/13 03:56:15;;;;;;;7.82;1.27;;;;;;;5.48;100.00;99789.38;5218850;28;20032;-76
2023/04/13 03:58:45;;;;;;;8.75;1.42;;;;;;;5.48;100.00;99794.69;5225952;28;20025;-77
2023/04/13 04:01:16;;;;;;;3.35;1.33;;;;;;;5.42;100.00;99796.16;5228212;28;20021;-76
2023/04/13 04:03:46;;;;;;;1.95;0.73;;;;;;;5.39;100.00;99807.13;5208774;28;20029;-76
2023/04/13 04:06:17;;;;;;;2.85;1.10;;;;;;;5.43;100.00;99805.81;5226500;28;20025;-77
2023/04/13 04:08:48;;;;;;;3.92;0.77;;;;;;;5.41;100.00;99810.44;5207802;28;20117;-77
2023/04/13 04:11:19;;;;;;;10.85;1.35;;;;;;;5.41;100.00;99816.59;5225879;28;20029;-77
2023/04/13 04:13:49;;;;;;;5.65;1.10;;;;;;;5.41;100.00;99821.91;5225320;28;20078;-77
2023/04/13 04:16:20;;;;;;;3.95;0.90;;;;;;;5.39;100.00;99823.06;5225648;28;20105;-77
2023/04/13 04:18:50;;;;;;;4.35;1.10;;;;;;;5.37;100.00;99822.38;5225411;28;20013;-77
2023/04/13 04:21:21;;;;;;;6.30;1.08;;;;;;;5.33;100.00;99827.19;5207339;28;20031;-77
2023/04/13 04:23:52;;;;;;;2.88;0.65;;;;;;;5.35;100.00;99829.69;5225013;28;20029;-77
2023/04/13 04:26:24;;;;;;;11.10;1.50;;;;;;;5.31;100.00;99834.50;5224922;28;20529;-77
2023/04/13 04:31:43;;;;;;;4.53;1.10;;;;;;;5.28;100.00;99839.31;5225318;28;20021;-77
2023/04/13 04:34:15;;;;;;;8.30;1.35;;;;;;;5.27;100.00;99838.47;5207456;28;20032;-76
2023/04/13 04:36:49;;;;;;;4.53;1.00;;;;;;;5.27;100.00;99840.28;5224628;28;20488;-77
2023/04/13 04:39:22;;;;;;;7.10;1.30;;;;;;;5.26;100.00;99847.41;5225264;28;20021;-77
2023/04/13 04:41:53;;;;;;;6.93;2.53;;;;;;;5.28;100.00;99847.28;5225055;28;20056;-77
2023/04/13 04:44:24;;;;;;;8.75;1.27;;;;;;;5.32;100.00;99848.63;5225179;28;20029;-77
2023/04/13 04:46:57;;;;;;;6.90;1.10;;;;;;;5.31;100.00;99862.91;5206547;28;20067;-77
2023/04/13 04:49:29;;;;;;;9.52;1.50;;;;;;;5.30;100.00;99867.41;5206821;28;20037;-77
2023/04/13 04:51:59;;;;;;;8.85;1.27;;;;;;;5.34;100.00;99874.06;5224514;28;20021;-77
2023/04/13 04:54:30;;;;;;;8.68;1.45;;;;;;;5.36;100.00;99874.75;5225071;28;20020;-77
2023/04/13 04:57:00;;;;;;;7.55;1.30;;;;;;;5.43;100.00;99875.81;5224486;28;20035;-77
2023/04/13 04:59:31;;;;;;;8.25;1.60;;;;;;;5.50;100.00;99888.47;5206536;28;20029;-77
2023/04/13 05:02:02;;;;;;;6.38;1.85;;;;;;;5.53;100.00;99882.84;5225054;28;20033;-77
2023/04/13 05:04:32;;;;;;;7.28;1.48;;;;;;;5.61;100.00;99880.22;5207005;28;20058;-76
2023/04/13 05:07:03;;;;;;;13.95;2.03;;;;;;;5.66;100.00;99878.75;5206746;28;20111;-76
2023/04/13 05:09:33;;;;;;;3.88;1.58;;;;;;;5.72;100.00;99883.47;5224254;28;20025;-77
2023/04/13 05:12:04;;;;;;;8.30;1.55;;;;;;;5.76;100.00;99878.63;5224121;28;20408;-77
2023/04/13 05:14:35;;;;;;;4.95;1.50;;;;;;;5.80;100.00;99882.66;5224883;28;20024;-77
2023/04/13 05:17:05;;;;;;;3.80;1.10;;;;;;;5.78;100.00;99879.34;5206255;28;20489;-77
2023/04/13 05:19:36;;;;;;;6.32;1.30;;;;;;;5.79;100.00;99890.81;5206475;28;20082;-77
2023/04/13 05:22:06;;;;;;;8.02;1.48;;;;;;;5.82;100.00;99893.13;5224003;28;20013;-76
2023/04/13 05:24:37;;;;;;;7.55;1.75;;;;;;;5.82;100.00;99893.97;5223928;28;20448;-77
2023/04/13 05:27:08;;;;;;;7.40;1.65;;;;;;;5.84;100.00;99902.63;5205996;28;20029;-77
2023/04/13 05:29:39;;;;;;;6.18;1.40;;;;;;;5.90;100.00;99907.31;5224290;28;20414;-76
2023/04/13 05:32:09;;;;;;;6.20;1.67;;;;;;;5.94;100.00;99908.72;5224181;28;20116;-77
2023/04/13 05:34:40;;;;;;;4.20;1.65;;;;;;;6.02;100.00;99912.41;5224232;28;20025;-77
2023/04/13 05:37:11;;;;;;;6.47;1.60;;;;;;;6.06;100.00;99921.75;5223468;28;20393;-76
2023/04/13 05:39:41;;;;;;;9.70;1.45;;;;;;;6.10;100.00;99921.25;5224195;28;20078;-77
2023/04/13 05:42:14;;;;;;;12.65;2.97;;;;;;;6.15;100.00;99928.78;5223944;28;20044;-77
2023/04/13 05:44:44;;;;;;;10.13;1.48;;;;;;;6.23;100.00;99920.81;5206570;28;20037;-76
2023/04/13 05:47:15;;;;;;;8.85;1.25;;;;;;;6.30;100.00;99924.50;5205536;28;20042;-76
2023/04/13 05:49:46;;;;;;;11.45;1.70;;;;;;;6.41;100.00;99931.38;5223336;28;20028;-77
2023/04/13 05:52:16;;;;;;;4.45;1.55;;;;;;;6.51;100.00;99933.88;5223792;28;20087;-77
2023/04/13 05:54:48;;;;;;;7.22;1.40;;;;;;;6.62;100.00;99934.41;5224170;28;20036;-76
2023/04/13 05:57:20;;;;;;;12.10;2.10;;;;;;;6.74;100.00;99937.63;5223667;28;20033;-76
2023/04/13 05:59:52;;;;;;;8.73;1.75;;;;;;;6.80;100.00;99946.78;5189584;28;20031;-77
2023/04/13 06:02:25;;;;;;;13.23;2.78;;;;;;;6.87;100.00;99945.97;5205908;28;20037;-76
2023/04/13 06:04:55;;;;;;;8.02;1.70;;;;;;;7.05;100.00;99951.16;5223727;28;20094;-76
2023/04/13 06:07:26;;;;;;;13.35;2.92;;;;;;;7.13;100.00;99955.66;5223441;28;20025;-76
2023/04/13 06:09:59;;;;;;;7.68;1.40;;;;;;;7.22;100.00;99960.81;5223683;28;20025;-76
2023/04/13 06:12:30;;;;;;;9.05;1.35;;;;;;;7.24;100.00;99966.03;5205422;28;20042;-77
2023/04/13 06:15:00;;;;;;;11.73;1.88;;;;;;;7.24;100.00;99963.34;5223984;28;20560;-77
2023/04/13 06:17:31;;;;;;;12.73;2.00;;;;;;;7.25;100.00;99973.03;5223101;28;20021;-77
2023/04/13 06:20:05;;;;;;;9.63;1.95;;;;;;;7.36;100.00;99972.69;5223808;28;20031;-76
2023/04/13 06:22:36;;;;;;;21.08;3.40;;;;;;;7.73;100.00;99977.50;5205741;28;20032;-77
2023/04/13 06:25:07;;;;;;;10.25;1.88;;;;;;;8.08;100.00;99990.59;5223571;28;20029;-76
2023/04/13 06:27:38;;;;;;;8.00;1.83;;;;;;;8.26;100.00;99988.56;5223272;28;20520;-77
2023/04/13 06:30:09;;;;;;;14.00;2.10;;;;;;;8.26;100.00;99994.75;5223668;28;20028;-76
2023/04/13 06:32:39;;;;;;;15.60;2.38;;;;;;;8.11;100.00;99992.94;5223364;28;20024;-76
2023/04/13 06:35:10;;;;;;;19.83;3.25;;;;;;;7.96;100.00;100001.66;5223618;28;20143;-76
2023/04/13 06:37:41;;;;;;;11.30;2.30;;;;;;;8.18;100.00;99999.25;5223004;28;20166;-77
2023/04/13 06:40:13;;;;;;;14.57;2.42;;;;;;;8.45;100.00;99996.22;5223565;28;20035;-76
2023/04/13 06:42:44;;;;;;;22.30;2.92;;;;;;;8.54;100.00;100000.53;5223526;28;20025;-76
2023/04/13 06:45:14;;;;;;;12.30;2.40;;;;;;;8.66;100.00;99998.28;5224475;28;20393;-76
2023/04/13 06:47:45;;;;;;;17.80;2.70;;;;;;;8.42;100.00;100009.09;5208754;28;20021;-77
2023/04/13 06:50:15;;;;;;;13.57;2.50;;;;;;;8.39;100.00;100010.28;5226812;28;20108;-76
2023/04/13 06:52:47;;;;;;;14.02;2.53;;;;;;;8.39;100.00;100018.28;5209446;28;20021;-77
2023/04/13 06:55:18;;;;;;;9.65;2.60;;;;;;;8.37;100.00;100022.97;5227259;28;20054;-76
2023/04/13 06:57:48;;;;;;;15.65;1.90;;;;;;;8.63;100.00;100029.88;5226719;28;20029;-76
2023/04/13 07:00:19;;;;;;;14.68;2.17;;;;;;;8.91;100.00;100036.44;5226494;28;20031;-76
2023/04/13 07:02:49;;;;;;;18.73;2.47;;;;;;;9.28;100.00;100029.53;5226658;28;20025;-76
2023/04/13 07:05:20;;;;;;;12.73;2.15;;;;;;;9.58;100.00;100028.63;5226888;28;20056;-76
2023/04/13 07:07:51;;;;;;;8.98;2.05;;;;;;;9.77;100.00;100037.19;5208909;28;20025;-77
2023/04/13 07:10:22;;;;;;;11.68;1.88;;;;;;;9.80;100.00;100039.53;5226609;28;20025;-76
2023/04/13 07:12:52;;;;;;;11.98;2.63;;;;;;;10.28;100.00;100040.91;5226206;28;20052;-77
2023/04/13 07:15:22;;;;;;;17.95;3.00;;;;;;;10.40;100.00;100053.88;5226880;28;20056;-77
2023/04/13 07:17:54;;;;;;;9.40;2.38;;;;;;;10.51;100.00;100045.38;5226154;28;20028;-77
2023/04/13 07:20:25;;;;;;;16.30;2.42;;;;;;;10.95;100.00;100055.22;5226882;28;20389;-77
2023/04/13 07:22:55;;;;;;;13.38;2.95;;;;;;;11.20;100.00;100070.00;5226556;28;20036;-76
2023/04/13 07:25:26;;;;;;;12.02;2.08;;;;;;;11.45;100.00;100065.09;5224347;28;20036;-76
2023/04/13 07:27:56;;;;;;;22.63;2.67;;;;;;;11.15;100.00;100069.72;5208166;28;20021;-77
2023/04/13 07:30:27;;;;;;;13.60;2.70;;;;;;;11.36;100.00;100071.59;5226090;28;20023;-77
2023/04/13 07:32:57;;;;;;;14.23;2.88;;;;;;;11.22;100.00;100072.47;5208614;28;20029;-77
2023/04/13 07:35:28;;;;;;;17.55;3.25;;;;;;;10.40;100.00;100073.47;5208430;28;20397;-77
2023/04/13 07:37:58;;;;;;;12.00;2.83;;;;;;;10.19;100.00;100087.56;5225477;28;20397;-77
2023/04/13 07:40:29;;;;;;;18.40;2.83;;;;;;;10.23;100.00;100080.81;5208170;28;20063;-77
2023/04/13 07:43:00;;;;;;;16.75;2.70;;;;;;;10.31;100.00;100094.16;5226144;28;20028;-77
2023/04/13 07:45:31;;;;;;;15.77;2.50;;;;;;;10.28;100.00;100093.69;5226005;28;20497;-77
2023/04/13 07:48:01;;;;;;;14.20;2.25;;;;;;;10.12;100.00;100098.16;5207743;28;20025;-77
2023/04/13 07:50:32;;;;;;;13.13;2.20;;;;;;;10.38;100.00;100111.19;5225672;28;20043;-77
2023/04/13 07:53:02;;;;;;;13.55;2.67;;;;;;;10.30;100.00;100113.13;5225843;28;20044;-76
2023/04/13 07:55:33;;;;;;;10.38;2.50;;;;;;;10.59;100.00;100121.22;5226045;28;20028;-76
2023/04/13 07:58:03;;;;;;;14.70;2.40;;;;;;;11.11;100.00;100131.00;5223973;28;20237;-76
2023/04/13 08:00:34;;;;;;;10.70;1.90;;;;;;;11.41;100.00;100123.72;5225487;28;20059;-76
2023/04/13 08:03:05;;;;;;;16.70;3.13;;;;;;;11.22;100.00;100132.38;5225232;28;20029;-76
2023/04/13 08:05:36;;;;;;;11.02;1.88;;;;;;;11.14;100.00;100135.16;5225837;28;20021;-76
2023/04/13 08:08:06;;;;;;;12.88;3.38;;;;;;;10.81;100.00;100132.03;5224985;28;20029;-77
2023/04/13 08:10:37;;;;;;;13.77;2.22;;;;;;;10.67;100.00;100130.19;5225311;28;20024;-76
2023/04/13 08:13:07;;;;;;;9.32;2.05;;;;;;;10.53;100.00;100140.69;5225594;28;20068;-76
2023/04/13 08:15:38;;;;;;;16.58;2.47;;;;;;;10.46;100.00;100149.69;5225492;28;20032;-76
2023/04/13 08:18:09;;;;;;;12.75;2.33;;;;;;;10.68;100.00;100158.66;5208866;28;20021;-76
2023/04/13 08:20:39;;;;;;;11.68;2.80;;;;;;;10.78;100.00;100148.50;5209155;28;20021;-76
2023/04/13 08:23:10;;;;;;;15.80;2.38;;;;;;;11.10;100.00;100161.56;5207646;28;20078;-76
2023/04/13 08:25:41;;;;;;;23.98;3.10;;;;;;;11.32;100.00;100161.63;5225427;28;20070;-76
2023/04/13 08:28:11;;;;;;;15.13;3.60;;;;;;;11.27;100.00;100158.66;5224662;28;20029;-76
2023/04/13 08:30:42;;;;;;;15.13;2.30;;;;;;;11.03;100.00;100157.94;5224710;28;20025;-76
2023/04/13 08:33:16;;;;;;;20.48;3.65;;;;;;;11.04;100.00;100170.31;5207350;28;20111;-76
2023/04/13 08:35:46;;;;;;;19.65;3.17;;;;;;;11.09;100.00;100173.31;5224672;28;20071;-76
2023/04/13 08:38:18;;;;;;;16.33;2.58;;;;;;;10.89;100.00;100172.19;5224478;28;20441;-76
2023/04/13 08:40:49;;;;;;;15.00;2.50;;;;;;;10.84;100.00;100185.31;5224719;28;20504;-76
2023/04/13 08:43:19;;;;;;;13.02;3.05;;;;;;;11.02;100.00;100183.09;5224713;28;20028;-76
2023/04/13 08:45:50;;;;;;;14.95;2.30;;;;;;;11.29;100.00;100172.72;5224909;28;20435;-76
2023/04/13 08:48:22;;;;;;;10.45;2.10;;;;;;;11.83;100.00;100180.41;5223978;28;20025;-76
2023/04/13 08:50:55;;;;;;;10.75;2.00;;;;;;;11.92;100.00;100188.16;5224161;28;20096;-76
2023/04/13 08:53:26;;;;;;;14.70;2.90;;;;;;;11.84;100.00;100198.19;5224284;28;20051;-76
2023/04/13 08:55:59;;;;;;;14.75;2.53;;;;;;;11.57;100.00;100197.88;5224525;28;20463;-77
2023/04/13 08:58:33;;;;;;;15.85;2.63;;;;;;;11.66;100.00;100201.28;5223608;28;20049;-76
2023/04/13 09:01:05;;;;;;;21.95;2.90;;;;;;;11.68;100.00;100199.22;5224175;28;20017;-76
2023/04/13 09:03:47;;;;;;;18.92;2.92;;;;;;;12.09;100.00;100191.44;5224293;28;20035;-77
2023/04/13 09:06:24;;;;;;;12.85;2.28;;;;;;;12.23;100.00;100207.69;5206345;28;20043;-77
2023/04/13 09:08:56;;;;;;;11.52;2.30;;;;;;;11.74;100.00;100213.75;5223783;28;20031;-77
2023/04/13 09:11:27;;;;;;;13.75;2.42;;;;;;;11.86;100.00;100214.97;5223875;28;20378;-77
2023/04/13 09:13:58;;;;;;;13.98;2.13;;;;;;;11.75;100.00;100221.66;5223887;28;20033;-77
2023/04/13 09:16:36;;;;;;;13.73;2.30;;;;;;;11.58;100.00;100221.03;5223761;28;20036;-76
2023/04/13 09:19:07;;;;;;;9.07;2.22;;;;;;;11.37;100.00;100229.84;5223743;28;20040;-76
2023/04/13 09:21:40;;;;;;;14.77;2.05;;;;;;;11.47;100.00;100236.78;5223695;28;20028;-76
2023/04/13 09:24:11;;;;;;;17.42;2.65;;;;;;;11.37;100.00;100234.38;5205886;28;20024;-77
2023/04/13 09:26:46;;;;;;;15.00;2.08;;;;;;;11.59;100.00;100227.22;5223830;28;20112;-76
2023/04/13 09:29:18;;;;;;;19.45;2.65;;;;;;;11.96;100.00;100236.19;5223603;28;20096;-76
2023/04/13 09:31:49;;;;;;;12.27;2.03;;;;;;;12.59;100.00;100238.03;5224089;28;20029;-77
2023/04/13 09:34:36;;;;;;;11.25;2.20;;;;;;;13.57;100.00;100247.00;5223718;28;20021;-76
2023/04/13 09:40:14;;;;;;;7.10;2.10;;;;;;;14.13;100.00;100237.84;5223764;28;20025;-76
2023/04/13 09:42:55;;;;;;;13.48;2.40;;;;;;;14.42;100.00;100242.06;5206159;28;20025;-76
2023/04/13 09:45:43;;;;;;;11.70;2.60;;;;;;;13.56;100.00;100250.72;5224000;28;20029;-76
2023/04/13 09:48:29;;;;;;;9.93;1.90;;;;;;;13.00;100.00;100255.31;5223242;28;20148;-76
2023/04/13 09:51:01;;;;;;;18.70;2.83;;;;;;;12.65;100.00;100260.63;5223362;28;20024;-76
2023/04/13 09:53:45;;;;;;;14.73;3.10;;;;;;;12.10;100.00;100252.25;5205600;28;20064;-76
2023/04/13 09:56:16;;;;;;;13.18;2.67;;;;;;;11.66;100.00;100266.59;5224047;28;20024;-76
2023/04/13 09:58:46;;;;;;;10.98;2.58;;;;;;;11.49;100.00;100261.59;5205500;28;20056;-76
2023/04/13 10:01:17;;;;;;;14.18;3.00;;;;;;;11.31;100.00;100267.38;5223660;28;20021;-76
2023/04/13 10:03:48;;;;;;;9.95;2.85;;;;;;;11.22;100.00;100268.47;5223389;28;20083;-76
2023/04/13 10:06:19;;;;;;;19.20;1.95;;;;;;;11.34;100.00;100261.59;5223300;28;20367;-76
2023/04/13 10:08:50;;;;;;;13.50;2.70;;;;;;;11.41;100.00;100281.34;5222962;28;20036;-76
2023/04/13 10:11:20;;;;;;;10.90;1.75;;;;;;;11.11;100.00;100267.91;5223644;28;20032;-76
2023/04/13 10:13:55;;;;;;;21.42;2.33;;;;;;;10.96;100.00;100283.16;5224013;28;20040;-76
2023/04/13 10:16:52;;;;;;;10.15;2.25;;;;;;;11.06;100.00;100273.00;5223092;28;20389;-75
2023/04/13 10:19:28;;;;;;;16.20;3.22;;;;;;;11.31;100.00;100281.63;5205404;28;20021;-76
2023/04/13 10:21:59;;;;;;;5.50;1.73;;;;;;;11.51;100.00;100289.13;5209177;28;20075;-76
2023/04/13 10:24:29;;;;;;;9.18;2.22;;;;;;;12.13;100.00;100280.63;5226946;28;20028;-76
2023/04/13 10:27:35;;;;;;;10.68;2.15;;;;;;;12.96;100.00;100309.56;5227121;28;20036;-76
2023/04/13 10:30:16;;;;;;;10.13;2.10;;;;;;;12.85;100.00;100298.47;5209419;28;20041;-76
2023/04/13 10:32:47;;;;;;;9.70;1.85;;;;;;;12.79;100.00;100301.94;5227644;28;20025;-76
2023/04/13 10:35:17;;;;;;;9.75;1.65;;;;;;;12.53;100.00;100314.13;5227297;28;20057;-76
2023/04/13 10:37:56;;;;;;;9.23;1.67;;;;;;;12.41;100.00;100307.63;5226821;28;20040;-76
2023/04/13 10:40:26;;;;;;;7.20;1.70;;;;;;;12.59;100.00;100321.44;5227413;28;20033;-76
2023/04/13 10:42:57;;;;;;;13.75;2.55;;;;;;;12.64;100.00;100316.31;5216163;28;20663;-76
2023/04/13 10:45:31;;;;;;;7.15;1.63;;;;;;;12.63;100.00;100320.03;5224530;28;20113;-76
2023/04/13 10:48:06;;;;;;;14.18;2.97;;;;;;;12.49;100.00;100329.00;5226919;28;20048;-76
2023/04/13 10:50:38;;;;;;;10.73;2.30;;;;;;;12.15;100.00;100341.25;5226743;28;20032;-76
2023/04/13 10:53:09;;;;;;;7.68;1.83;;;;;;;12.34;100.00;100338.97;5209472;28;20389;-76
2023/04/13 10:55:42;;;;;;;19.60;2.28;;;;;;;12.79;100.00;100340.47;5226715;28;20119;-76
2023/04/13 10:58:16;;;;;;;9.77;2.20;;;;;;;13.28;100.00;100334.28;5226296;28;20166;-76
2023/04/13 11:00:51;;;;;;;10.18;2.15;;;;;;;13.43;100.00;100348.47;5209124;28;20036;-76
2023/04/13 11:03:25;;;;;;;10.57;2.35;;;;;;;13.60;100.00;100357.06;5226862;28;20062;-76
2023/04/13 11:05:58;;;;;;;17.90;3.20;;;;;;;13.57;100.00;100351.28;5226948;28;20025;-76
2023/04/13 11:08:29;;;;;;;13.70;2.20;;;;;;;13.72;100.00;100350.13;5225841;28;20037;-76
2023/04/13 11:11:00;;;;;;;9.40;2.10;;;;;;;13.94;100.00;100358.09;5208342;28;20079;-76
2023/04/13 11:13:31;;;;;;;9.73;2.33;;;;;;;14.10;100.00;100352.34;5208913;28;20413;-76
2023/04/13 11:16:03;;;;;;;17.70;3.00;;;;;;;14.42;100.00;100350.00;5226162;28;20029;-76
2023/04/13 11:18:34;;;;;;;10.13;2.63;;;;;;;14.12;100.00;100349.47;5226132;28;20025;-76
2023/04/13 11:21:12;;;;;;;9.35;1.88;;;;;;;14.14;100.00;100345.53;5225726;28;20489;-76
2023/04/13 11:23:52;;;;;;;9.55;1.80;;;;;;;14.48;100.00;100354.59;5226407;28;20029;-77
2023/04/13 11:26:37;;;;;;;7.90;1.40;;;;;;;14.49;100.00;100351.69;5224050;28;20048;-75
2023/04/13 11:29:16;;;;;;;6.82;1.48;;;;;;;14.37;100.00;100358.69;5225489;28;20037;-76
2023/04/13 11:31:47;;;;;;;19.08;2.42;;;;;;;14.15;100.00;100360.69;5226016;28;20509;-76
2023/04/13 11:34:36;;;;;;;10.02;1.52;;;;;;;14.10;100.00;100365.00;5226194;28;20057;-76
2023/04/13 11:37:07;;;;;;;8.25;1.45;;;;;;;14.10;100.00;100363.16;5207722;28;20029;-76
2023/04/13 11:39:38;;;;;;;9.88;1.95;;;;;;;14.49;100.00;100361.66;5225774;28;20040;-75
2023/04/13 11:42:09;;;;;;;13.82;2.05;;;;;;;13.90;100.00;100376.53;5204154;28;20025;-76
2023/04/13 11:44:45;;;;;;;10.65;1.83;;;;;;;13.76;100.00;100379.38;5217305;28;20481;-76
2023/04/13 11:47:16;;;;;;;9.75;2.83;;;;;;;13.80;100.00;100377.94;5225405;28;20067;-76
2023/04/13 11:49:47;;;;;;;12.82;2.60;;;;;;;14.03;100.00;100378.47;5225492;28;20044;-76
2023/04/13 11:52:18;;;;;;;14.93;4.15;;;;;;;14.32;100.00;100371.97;5207369;28;20036;-76